Time;durP1;ratioP1;P1;durP2;ratioP2;P2;SDS_P1;SDS_P2;PMS_P1;PMS_P2;Temp;Humidity;BMP_temperature;BMP_pressure;BME280_temperature;BME280_humidity;BME280_pressure;Samples;Min_cycle;Max_cycle;Signal;HPM_P1;HPM_P2
2021/01/15 00:01:35;;;;;;;8.95;7.35;;;3.10;99.90;;;;;;5065269;28;20193;-56
2021/01/15 00:04:02;;;;;;;7.30;6.13;;;2.70;99.90;;;;;;5066040;28;20220;-57
2021/01/15 00:06:27;;;;;;;8.40;7.45;;;2.60;99.90;;;;;;5059825;28;20185;-56
2021/01/15 00:08:54;;;;;;;9.00;7.37;;;2.80;99.90;;;;;;5065451;28;20205;-56
2021/01/15 00:11:31;;;;;;;10.48;7.70;;;2.80;99.90;;;;;;5052363;28;20432;-57
2021/01/15 00:13:58;;;;;;;7.63;6.90;;;2.80;99.90;;;;;;5060971;28;20188;-56
2021/01/15 00:16:28;;;;;;;8.23;6.55;;;2.60;99.90;;;;;;5051719;28;20186;-57
2021/01/15 00:18:55;;;;;;;7.38;6.57;;;2.50;99.90;;;;;;5060155;28;20262;-56
2021/01/15 00:21:25;;;;;;;9.77;7.07;;;2.80;99.90;;;;;;5067718;28;20220;-56
2021/01/15 00:23:53;;;;;;;9.73;7.15;;;2.50;99.90;;;;;;5069691;28;20204;-57
2021/01/15 00:26:20;;;;;;;8.10;6.10;;;2.70;99.90;;;;;;5064502;28;20260;-57
2021/01/15 00:28:46;;;;;;;6.95;6.03;;;2.90;99.90;;;;;;5060634;28;20201;-57
2021/01/15 00:31:12;;;;;;;7.38;6.38;;;2.60;99.90;;;;;;5061071;28;20217;-57
2021/01/15 00:33:38;;;;;;;7.27;5.53;;;2.90;99.90;;;;;;5071691;28;20205;-57
2021/01/15 00:36:06;;;;;;;6.85;6.15;;;2.80;99.90;;;;;;5070516;28;20185;-57
2021/01/15 00:38:35;;;;;;;10.50;6.75;;;2.70;99.90;;;;;;5059877;28;20765;-57
2021/01/15 00:41:06;;;;;;;8.10;6.18;;;2.70;99.90;;;;;;5068858;28;20192;-56
2021/01/15 00:43:33;;;;;;;7.50;5.70;;;2.70;99.90;;;;;;5061515;28;20563;-57
2021/01/15 00:45:59;;;;;;;9.80;6.50;;;2.80;99.90;;;;;;5061142;28;20182;-56
2021/01/15 00:48:25;;;;;;;8.50;6.47;;;2.80;99.90;;;;;;5061618;28;20236;-56
2021/01/15 00:50:50;;;;;;;7.10;6.40;;;2.50;99.40;;;;;;5071075;28;20185;-56
2021/01/15 00:53:16;;;;;;;8.27;5.70;;;2.80;99.60;;;;;;5060322;28;20442;-56
2021/01/15 00:55:42;;;;;;;6.73;6.03;;;2.70;99.60;;;;;;5063989;28;20190;-57
2021/01/15 00:58:11;;;;;;;7.60;5.27;;;2.60;99.90;;;;;;5055103;28;20181;-56
2021/01/15 01:00:36;;;;;;;8.48;5.50;;;2.80;99.90;;;;;;5061049;28;20268;-56
2021/01/15 01:03:05;;;;;;;7.00;5.40;;;2.80;99.90;;;;;;5067988;28;20299;-56
2021/01/15 01:05:32;;;;;;;5.85;5.25;;;2.80;99.80;;;;;;5070866;28;20188;-57
2021/01/15 01:07:57;;;;;;;7.75;5.72;;;2.60;99.80;;;;;;5062568;28;20189;-57
2021/01/15 01:10:23;;;;;;;6.33;5.10;;;2.40;99.50;;;;;;5059267;28;20177;-56
2021/01/15 01:12:48;;;;;;;4.33;4.00;;;2.30;99.50;;;;;;5054341;28;20189;-56
2021/01/15 01:15:15;;;;;;;6.87;4.40;;;2.50;99.90;;;;;;5068098;28;20234;-57
2021/01/15 01:17:41;;;;;;;5.00;4.50;;;2.60;99.90;;;;;;5062893;28;20237;-56
2021/01/15 01:20:09;;;;;;;5.78;4.70;;;2.30;99.90;;;;;;5065324;28;20202;-57
2021/01/15 01:22:34;;;;;;;4.85;4.32;;;2.60;99.90;;;;;;5050398;28;20182;-56
2021/01/15 01:25:01;;;;;;;4.33;3.93;;;2.40;99.90;;;;;;5067042;28;20273;-57
2021/01/15 01:27:26;;;;;;;6.63;4.63;;;2.50;99.90;;;;;;5065140;28;20181;-56
2021/01/15 01:29:52;;;;;;;5.17;4.60;;;2.40;99.90;;;;;;5060247;28;20219;-56
2021/01/15 01:32:18;;;;;;;4.47;3.70;;;2.50;99.90;;;;;;5070374;28;20826;-56
2021/01/15 01:34:43;;;;;;;6.40;4.00;;;2.60;99.80;;;;;;5069993;28;20200;-56
2021/01/15 01:37:09;;;;;;;5.23;4.27;;;2.40;99.50;;;;;;5058881;28;20181;-56
2021/01/15 01:39:35;;;;;;;6.47;4.50;;;2.50;99.40;;;;;;5064309;28;20454;-57
2021/01/15 01:42:00;;;;;;;5.73;4.10;;;2.40;99.30;;;;;;5059645;28;20739;-57
2021/01/15 01:44:26;;;;;;;4.43;3.70;;;2.50;99.40;;;;;;5060774;28;20455;-55
2021/01/15 01:46:53;;;;;;;4.50;4.10;;;2.50;99.50;;;;;;5064292;28;20299;-56
2021/01/15 01:49:20;;;;;;;5.15;3.58;;;2.60;99.90;;;;;;5059698;28;20563;-56
2021/01/15 01:51:48;;;;;;;3.80;3.40;;;2.20;99.70;;;;;;5062462;28;20197;-57
2021/01/15 01:54:14;;;;;;;4.70;3.72;;;2.40;99.90;;;;;;5057050;28;20275;-56
2021/01/15 01:56:41;;;;;;;4.95;2.75;;;2.50;99.90;;;;;;5060825;28;20562;-57
2021/01/15 01:59:09;;;;;;;3.63;3.33;;;2.40;99.50;;;;;;5067717;28;20216;-56
2021/01/15 02:01:35;;;;;;;5.22;3.80;;;2.30;99.50;;;;;;5058092;28;20178;-56
2021/01/15 02:04:02;;;;;;;4.90;4.43;;;2.30;99.20;;;;;;5059746;28;20223;-57
2021/01/15 02:06:28;;;;;;;5.63;3.70;;;2.20;99.40;;;;;;5069488;28;20184;-56
2021/01/15 02:08:54;;;;;;;5.25;3.05;;;2.40;99.50;;;;;;5064380;28;20543;-56
2021/01/15 02:11:31;;;;;;;5.97;3.92;;;2.00;99.40;;;;;;5075633;28;20186;-55
2021/01/15 02:14:47;;;;;;;4.53;3.10;;;2.20;99.90;;;;;;5056314;28;20280;-56
2021/01/15 02:17:17;;;;;;;5.55;3.40;;;1.90;99.60;;;;;;5055369;28;20306;-56
2021/01/15 02:20:02;;;;;;;3.33;3.03;;;2.10;99.60;;;;;;5066073;28;20290;-56
2021/01/15 02:22:44;;;;;;;3.70;3.40;;;2.00;99.50;;;;;;5068690;28;20178;-56
2021/01/15 02:25:43;;;;;;;4.38;3.55;;;2.10;99.80;;;;;;5068011;28;20716;-56
2021/01/15 02:28:33;;;;;;;3.10;2.90;;;2.20;99.50;;;;;;5042128;28;20193;-56
2021/01/15 02:31:36;;;;;;;3.47;3.17;;;1.90;99.80;;;;;;5063828;28;20181;-56
2021/01/15 02:34:09;;;;;;;4.43;3.55;;;2.00;99.90;;;;;;5064098;28;20708;-56
2021/01/15 02:37:03;;;;;;;4.00;3.53;;;1.80;99.60;;;;;;5056915;28;20600;-56
2021/01/15 02:40:00;;;;;;;3.13;2.92;;;2.20;99.90;;;;;;5060027;28;20661;-56
2021/01/15 02:42:28;;;;;;;4.10;3.55;;;1.90;99.60;;;;;;5066733;28;20339;-56
2021/01/15 02:44:55;;;;;;;5.85;3.22;;;1.80;99.90;;;;;;5057448;28;20209;-56
2021/01/15 02:47:28;;;;;;;3.35;3.05;;;1.80;99.80;;;;;;5067926;28;20679;-56
2021/01/15 02:49:56;;;;;;;3.78;3.38;;;2.00;99.90;;;;;;5062550;28;20228;-56
2021/01/15 02:52:22;;;;;;;3.80;3.03;;;1.90;99.20;;;;;;5067625;28;20560;-56
2021/01/15 02:54:48;;;;;;;4.63;3.60;;;1.80;99.50;;;;;;5068676;28;20192;-57
2021/01/15 02:57:13;;;;;;;2.87;2.50;;;1.90;99.50;;;;;;5057202;28;20189;-56
2021/01/15 02:59:39;;;;;;;3.70;3.03;;;1.90;99.30;;;;;;5068831;28;20287;-56
2021/01/15 03:02:15;;;;;;;3.50;3.00;;;2.20;99.20;;;;;;5056405;28;20186;-57
2021/01/15 03:05:05;;;;;;;5.40;3.22;;;1.90;99.00;;;;;;5068619;28;20214;-56
2021/01/15 03:07:31;;;;;;;3.90;3.22;;;2.10;99.10;;;;;;5056995;28;20193;-56
2021/01/15 03:10:03;;;;;;;3.42;3.10;;;1.70;99.20;;;;;;5051135;28;20205;-56
2021/01/15 03:12:31;;;;;;;5.50;3.00;;;1.70;98.90;;;;;;5056362;28;20543;-56
2021/01/15 03:14:58;;;;;;;3.63;3.13;;;1.70;98.90;;;;;;5059082;28;20266;-55
2021/01/15 03:17:30;;;;;;;6.90;3.28;;;1.80;99.10;;;;;;5067738;28;20188;-56
2021/01/15 03:19:56;;;;;;;4.13;3.50;;;1.80;99.00;;;;;;5060551;28;20201;-56
2021/01/15 03:22:26;;;;;;;3.70;3.05;;;1.70;99.00;;;;;;5059525;28;20193;-56
2021/01/15 03:24:55;;;;;;;4.00;3.28;;;1.90;98.90;;;;;;5064469;28;20223;-56
2021/01/15 03:27:23;;;;;;;3.72;3.35;;;1.60;98.60;;;;;;5053337;28;20269;-57
2021/01/15 03:29:48;;;;;;;3.80;2.97;;;1.60;99.10;;;;;;5060532;28;20207;-56
2021/01/15 03:32:15;;;;;;;3.30;3.00;;;1.60;99.90;;;;;;5059338;28;20621;-57
2021/01/15 03:34:41;;;;;;;2.85;2.65;;;1.90;99.50;;;;;;5060284;28;20263;-56
2021/01/15 03:37:07;;;;;;;3.40;3.10;;;1.70;98.80;;;;;;5067355;28;20185;-57
2021/01/15 03:39:33;;;;;;;3.47;3.10;;;1.70;98.90;;;;;;5060626;28;20316;-56
2021/01/15 03:41:59;;;;;;;4.60;3.38;;;1.80;99.10;;;;;;5061032;28;20197;-57
2021/01/15 03:44:25;;;;;;;3.50;3.20;;;1.60;98.90;;;;;;5064825;28;20209;-57
2021/01/15 03:46:55;;;;;;;3.97;3.47;;;1.60;98.80;;;;;;5068324;28;20632;-56
2021/01/15 03:49:21;;;;;;;3.30;3.00;;;1.70;99.20;;;;;;5061864;28;20262;-56
2021/01/15 03:51:47;;;;;;;3.83;2.90;;;1.70;99.10;;;;;;5067407;28;20192;-56
2021/01/15 03:54:13;;;;;;;3.53;3.23;;;1.50;98.70;;;;;;5063304;28;20646;-56
2021/01/15 03:56:39;;;;;;;4.47;3.13;;;1.60;98.90;;;;;;5067084;28;20199;-55
2021/01/15 03:59:05;;;;;;;3.42;2.60;;;1.40;98.90;;;;;;5071151;28;20473;-56
2021/01/15 04:01:31;;;;;;;4.88;3.30;;;1.50;99.00;;;;;;5061325;28;20185;-56
2021/01/15 04:03:56;;;;;;;3.78;3.25;;;1.40;99.00;;;;;;5070409;28;20212;-56
2021/01/15 04:06:24;;;;;;;4.20;3.50;;;1.60;99.10;;;;;;5068161;28;20346;-57
2021/01/15 04:08:49;;;;;;;4.22;2.83;;;1.40;99.30;;;;;;5059181;28;20207;-56
2021/01/15 04:11:15;;;;;;;6.63;3.37;;;1.40;99.20;;;;;;5063595;28;20279;-56
2021/01/15 04:13:41;;;;;;;3.87;3.50;;;1.40;99.40;;;;;;5066340;28;20267;-56
2021/01/15 04:16:06;;;;;;;4.97;3.43;;;1.30;99.50;;;;;;5060258;28;20555;-56
2021/01/15 04:18:32;;;;;;;5.23;3.80;;;1.10;99.30;;;;;;5061811;28;20219;-57
2021/01/15 04:20:57;;;;;;;4.10;3.37;;;1.40;99.90;;;;;;5063840;28;20212;-56
2021/01/15 04:23:23;;;;;;;4.80;3.40;;;1.60;99.70;;;;;;5065035;28;20296;-57
2021/01/15 04:25:49;;;;;;;5.90;3.70;;;1.60;99.60;;;;;;5061904;28;20181;-57
2021/01/15 04:28:14;;;;;;;4.60;3.53;;;1.30;99.50;;;;;;5070857;28;20248;-56
2021/01/15 04:30:40;;;;;;;4.00;3.40;;;1.40;99.80;;;;;;5063959;28;20231;-56
2021/01/15 04:33:05;;;;;;;3.30;3.00;;;1.10;99.80;;;;;;5071511;28;20189;-56
2021/01/15 04:35:31;;;;;;;4.67;3.70;;;1.20;99.90;;;;;;5063397;28;20193;-56
2021/01/15 04:37:57;;;;;;;5.93;3.70;;;1.10;99.30;;;;;;5063101;28;20200;-56
2021/01/15 04:40:22;;;;;;;4.17;3.30;;;1.00;99.60;;;;;;5060472;28;20197;-56
2021/01/15 04:42:48;;;;;;;5.03;4.07;;;1.10;99.50;;;;;;5065347;28;20232;-56
2021/01/15 04:45:15;;;;;;;4.30;3.78;;;1.20;99.60;;;;;;5061526;28;20462;-57
2021/01/15 04:47:46;;;;;;;6.13;3.80;;;1.20;99.70;;;;;;5060953;28;20217;-57
2021/01/15 04:50:14;;;;;;;4.45;4.05;;;1.20;99.80;;;;;;5071892;28;20229;-57
2021/01/15 04:52:49;;;;;;;6.53;3.85;;;1.10;99.80;;;;;;5064265;28;20213;-57
2021/01/15 04:55:22;;;;;;;4.95;4.00;;;1.10;99.90;;;;;;5055356;28;20181;-56
2021/01/15 04:57:59;;;;;;;5.07;3.78;;;1.10;99.90;;;;;;5060197;28;20189;-56
2021/01/15 05:00:26;;;;;;;4.90;3.95;;;1.20;99.90;;;;;;5056787;28;20181;-56
2021/01/15 05:02:53;;;;;;;4.65;3.97;;;0.80;99.90;;;;;;5070470;28;20185;-56
2021/01/15 05:05:26;;;;;;;4.35;3.95;;;1.00;99.90;;;;;;5053355;28;20259;-56
2021/01/15 05:08:13;;;;;;;7.72;4.60;;;0.80;99.90;;;;;;5057961;28;20182;-56
2021/01/15 05:10:41;;;;;;;4.97;3.75;;;0.80;99.90;;;;;;5056719;28;20177;-56
2021/01/15 05:13:09;;;;;;;4.65;3.80;;;0.90;99.90;;;;;;5068515;28;20199;-56
2021/01/15 05:15:41;;;;;;;5.30;4.30;;;1.00;99.90;;;;;;5069764;28;20189;-55
2021/01/15 05:18:07;;;;;;;4.53;4.10;;;0.70;99.90;;;;;;5069277;28;20191;-56
2021/01/15 05:20:35;;;;;;;5.15;4.43;;;0.80;99.90;;;;;;5066215;28;20185;-56
2021/01/15 05:23:02;;;;;;;7.07;4.40;;;0.90;99.90;;;;;;5064524;28;20201;-56
2021/01/15 05:25:29;;;;;;;7.75;4.63;;;0.70;99.90;;;;;;5068219;28;20744;-56
2021/01/15 05:27:56;;;;;;;4.40;4.00;;;0.90;99.90;;;;;;5069374;28;20273;-56
2021/01/15 05:30:24;;;;;;;8.40;6.30;;;1.00;99.90;;;;;;5059566;28;20182;-56
2021/01/15 05:32:57;;;;;;;4.40;3.88;;;0.90;99.90;;;;;;5063111;28;20269;-57
2021/01/15 05:35:40;;;;;;;11.13;5.03;;;0.90;99.90;;;;;;5067749;28;20190;-56
2021/01/15 05:38:05;;;;;;;6.20;5.10;;;0.90;99.90;;;;;;5069548;28;20177;-57
2021/01/15 05:40:35;;;;;;;9.43;5.13;;;0.90;99.90;;;;;;5057857;28;20203;-57
2021/01/15 05:43:05;;;;;;;5.65;4.82;;;0.90;99.90;;;;;;5070150;28;20260;-55
2021/01/15 05:45:31;;;;;;;7.80;6.68;;;0.90;99.90;;;;;;5064871;28;20201;-56
2021/01/15 05:47:57;;;;;;;6.50;4.90;;;1.00;99.90;;;;;;5061467;28;20280;-56
2021/01/15 05:50:36;;;;;;;5.90;5.33;;;0.90;99.90;;;;;;5057308;28;20273;-55
2021/01/15 05:53:02;;;;;;;4.68;4.07;;;1.00;99.90;;;;;;5062017;28;20185;-57
2021/01/15 05:55:28;;;;;;;6.37;4.53;;;1.00;99.90;;;;;;5064092;28;20214;-58
2021/01/15 05:57:53;;;;;;;5.40;4.40;;;0.90;99.90;;;;;;5060518;28;20183;-57
2021/01/15 06:00:39;;;;;;;5.80;4.47;;;0.80;99.90;;;;;;5060484;28;20536;-58
2021/01/15 06:03:07;;;;;;;5.15;4.22;;;0.70;99.90;;;;;;5063054;28;20284;-59
2021/01/15 06:05:34;;;;;;;6.75;4.53;;;0.90;99.90;;;;;;5060645;28;20199;-57
2021/01/15 06:08:00;;;;;;;6.85;4.22;;;0.80;99.90;;;;;;5064836;28;20196;-59
2021/01/15 06:10:28;;;;;;;6.55;5.00;;;0.70;99.90;;;;;;5077730;28;20193;-57
2021/01/15 06:12:54;;;;;;;5.20;4.63;;;0.90;99.90;;;;;;5063646;28;20658;-57
2021/01/15 06:15:20;;;;;;;4.05;3.65;;;0.70;99.90;;;;;;5061264;28;20185;-57
2021/01/15 06:17:51;;;;;;;4.30;3.90;;;0.70;99.90;;;;;;5062530;28;20260;-57
2021/01/15 06:20:21;;;;;;;5.72;4.40;;;0.70;99.90;;;;;;5058274;28;20228;-56
2021/01/15 06:22:54;;;;;;;7.72;4.72;;;0.70;99.90;;;;;;5068798;28;20291;-56
2021/01/15 06:25:33;;;;;;;5.03;4.05;;;0.40;99.90;;;;;;5068118;28;20251;-56
2021/01/15 06:28:03;;;;;;;4.82;4.30;;;0.60;99.90;;;;;;5064003;28;20185;-56
2021/01/15 06:30:30;;;;;;;4.90;4.40;;;0.40;99.90;;;;;;5058009;28;20191;-56
2021/01/15 06:33:10;;;;;;;8.73;4.70;;;0.50;99.90;;;;;;5060183;28;20181;-57
2021/01/15 06:35:37;;;;;;;5.25;4.57;;;0.60;99.90;;;;;;5067440;28;20192;-57
2021/01/15 06:38:19;;;;;;;6.38;4.70;;;0.50;99.90;;;;;;5065000;28;20193;-56
2021/01/15 06:40:49;;;;;;;5.60;4.20;;;0.80;99.90;;;;;;5053273;28;20205;-57
2021/01/15 06:43:21;;;;;;;5.18;4.65;;;0.50;99.90;;;;;;5057625;28;20331;-56
2021/01/15 06:45:52;;;;;;;4.85;4.15;;;0.40;99.90;;;;;;5058041;28;20209;-57
2021/01/15 06:48:18;;;;;;;7.32;5.43;;;0.60;99.90;;;;;;5054904;28;20217;-57
2021/01/15 06:50:49;;;;;;;6.25;4.55;;;0.40;99.90;;;;;;5059213;28;20190;-56
2021/01/15 06:53:21;;;;;;;4.57;4.18;;;0.60;99.90;;;;;;5056150;28;20222;-57
2021/01/15 06:55:57;;;;;;;7.90;5.22;;;0.50;99.90;;;;;;5061206;28;20205;-57
2021/01/15 06:58:23;;;;;;;5.95;5.00;;;0.60;99.90;;;;;;5051890;28;20320;-57
2021/01/15 07:01:15;;;;;;;5.72;5.20;;;0.60;99.90;;;;;;5064507;28;20205;-58
2021/01/15 07:03:53;;;;;;;6.35;5.00;;;0.50;99.90;;;;;;5064865;28;20289;-58
2021/01/15 07:06:26;;;;;;;7.05;5.05;;;0.50;99.90;;;;;;5067333;28;20674;-57
2021/01/15 07:08:54;;;;;;;5.60;4.10;;;0.60;99.90;;;;;;5063040;28;20209;-57
2021/01/15 07:11:22;;;;;;;4.90;4.40;;;0.60;99.90;;;;;;5063207;28;20184;-60
2021/01/15 07:13:53;;;;;;;5.15;4.65;;;0.30;99.90;;;;;;5067815;28;20192;-63
2021/01/15 07:16:31;;;;;;;8.10;5.38;;;0.40;99.90;;;;;;5056829;28;20581;-58
2021/01/15 07:19:15;;;;;;;6.10;4.78;;;0.50;99.90;;;;;;5061398;28;20232;-55
2021/01/15 07:22:04;;;;;;;6.90;5.10;;;0.50;99.90;;;;;;5056667;28;20264;-57
2021/01/15 07:24:33;;;;;;;6.32;5.45;;;0.60;99.90;;;;;;5063745;28;20674;-56
2021/01/15 07:26:59;;;;;;;6.22;5.25;;;0.40;99.90;;;;;;5058102;28;20547;-56
2021/01/15 07:29:27;;;;;;;8.60;5.25;;;0.60;99.90;;;;;;5067574;28;20423;-56
2021/01/15 07:32:05;;;;;;;6.75;4.82;;;0.50;99.90;;;;;;5054307;28;20185;-58
2021/01/15 07:34:31;;;;;;;7.28;5.38;;;0.30;99.90;;;;;;5052766;28;20196;-59
2021/01/15 07:36:56;;;;;;;6.13;4.53;;;0.60;99.90;;;;;;5057920;28;20191;-58
2021/01/15 07:39:22;;;;;;;6.47;4.57;;;0.30;99.90;;;;;;5067401;28;20209;-56
2021/01/15 07:41:53;;;;;;;6.65;4.63;;;0.50;99.90;;;;;;5053490;28;20187;-57
2021/01/15 07:44:24;;;;;;;6.28;4.90;;;0.50;99.90;;;;;;5049647;28;20737;-56
2021/01/15 07:46:59;;;;;;;5.93;5.22;;;0.10;99.90;;;;;;5060179;28;20196;-57
2021/01/15 07:49:25;;;;;;;7.57;6.22;;;0.60;99.90;;;;;;5046385;28;20224;-58
2021/01/15 07:52:07;;;;;;;10.35;6.10;;;0.40;99.90;;;;;;5052918;28;20737;-58
2021/01/15 07:54:57;;;;;;;7.68;5.20;;;0.60;99.90;;;;;;5065117;28;20235;-59
2021/01/15 07:57:23;;;;;;;6.80;4.78;;;0.80;99.90;;;;;;5057734;28;20258;-57
2021/01/15 07:59:49;;;;;;;8.40;6.25;;;0.80;99.90;;;;;;5066934;28;20613;-58
2021/01/15 08:02:19;;;;;;;7.20;5.90;;;0.70;99.90;;;;;;5067772;28;20277;-60
2021/01/15 08:04:45;;;;;;;7.70;5.90;;;0.80;99.90;;;;;;5049487;28;20540;-60
2021/01/15 08:07:25;;;;;;;11.03;6.00;;;0.80;99.90;;;;;;5060580;28;20184;-61
2021/01/15 08:09:50;;;;;;;10.23;6.55;;;0.70;99.90;;;;;;5046345;28;20862;-60
2021/01/15 08:12:16;;;;;;;8.50;6.63;;;0.80;99.90;;;;;;5067228;28;20276;-59
2021/01/15 08:14:42;;;;;;;12.30;7.17;;;0.60;99.90;;;;;;5064612;28;20185;-59
2021/01/15 08:17:11;;;;;;;9.73;7.10;;;0.70;99.90;;;;;;5061998;28;20858;-58
2021/01/15 08:19:38;;;;;;;9.20;6.75;;;-0.10;99.90;;;;;;5065526;28;20209;-60
2021/01/15 08:22:07;;;;;;;7.43;6.47;;;0.60;99.90;;;;;;5058938;28;20722;-59
2021/01/15 08:24:43;;;;;;;9.52;6.65;;;0.80;99.90;;;;;;5062910;28;20757;-59
2021/01/15 08:27:15;;;;;;;10.30;7.30;;;0.80;99.90;;;;;;5067444;28;20480;-59
2021/01/15 08:29:41;;;;;;;10.98;6.50;;;0.90;99.90;;;;;;5058687;28;20209;-57
2021/01/15 08:32:08;;;;;;;10.07;7.50;;;1.10;99.90;;;;;;5048061;28;20178;-57
2021/01/15 08:34:35;;;;;;;9.18;6.97;;;0.40;99.60;;;;;;5060074;28;20182;-57
2021/01/15 08:37:05;;;;;;;8.85;6.50;;;0.80;99.90;;;;;;5057782;28;20284;-57
2021/01/15 08:39:53;;;;;;;9.55;7.25;;;0.80;99.90;;;;;;5065699;28;20200;-56
2021/01/15 08:42:20;;;;;;;11.32;7.40;;;0.70;99.90;;;;;;5065368;28;20190;-58
2021/01/15 08:44:50;;;;;;;8.35;6.85;;;0.90;99.90;;;;;;5063472;28;20217;-59
2021/01/15 08:47:21;;;;;;;8.23;6.78;;;0.90;99.90;;;;;;5063638;28;20266;-60
2021/01/15 08:49:57;;;;;;;10.48;7.47;;;1.00;99.90;;;;;;5064895;28;20256;-59
2021/01/15 08:52:26;;;;;;;13.65;7.90;;;1.00;99.90;;;;;;5067401;28;20281;-61
2021/01/15 08:54:52;;;;;;;8.68;7.10;;;1.00;99.80;;;;;;5060932;28;20178;-58
2021/01/15 08:57:27;;;;;;;9.80;8.35;;;1.10;99.40;;;;;;5061825;28;20226;-57
2021/01/15 08:59:52;;;;;;;9.35;7.32;;;1.10;99.80;;;;;;5076558;28;20216;-57
2021/01/15 09:02:20;;;;;;;14.60;8.10;;;0.60;99.80;;;;;;5056639;28;20177;-60
2021/01/15 09:04:47;;;;;;;17.77;9.55;;;1.10;99.90;;;;;;5059919;28;20201;-59
2021/01/15 09:07:14;;;;;;;11.02;7.30;;;0.90;99.90;;;;;;5059272;28;20212;-59
2021/01/15 09:09:41;;;;;;;9.38;8.13;;;1.30;99.90;;;;;;5055361;28;20623;-58
2021/01/15 09:12:08;;;;;;;8.75;7.55;;;1.10;99.90;;;;;;5057096;28;20181;-57
2021/01/15 09:14:38;;;;;;;8.50;7.35;;;1.40;99.40;;;;;;5056269;28;20553;-58
2021/01/15 09:17:05;;;;;;;10.90;6.75;;;1.50;99.40;;;;;;5063803;28;20563;-59
2021/01/15 09:19:31;;;;;;;9.10;7.60;;;1.20;99.30;;;;;;5064789;28;20198;-58
2021/01/15 09:22:00;;;;;;;9.75;7.90;;;1.10;99.90;;;;;;5056969;28;20224;-59
2021/01/15 09:24:28;;;;;;;10.88;8.05;;;1.20;99.40;;;;;;5064947;28;20267;-59
2021/01/15 09:27:05;;;;;;;10.35;7.80;;;1.60;98.90;;;;;;5063602;28;20204;-60
2021/01/15 09:29:33;;;;;;;11.18;7.72;;;1.80;98.90;;;;;;5053074;28;20209;-60
2021/01/15 09:31:59;;;;;;;8.38;7.00;;;2.00;98.60;;;;;;5063535;28;20192;-58
2021/01/15 09:34:26;;;;;;;10.10;8.60;;;2.20;98.30;;;;;;5077533;28;20193;-57
2021/01/15 09:36:52;;;;;;;9.27;7.50;;;2.10;97.90;;;;;;5067148;28;20280;-57
2021/01/15 09:39:23;;;;;;;9.85;7.68;;;2.20;98.30;;;;;;5059670;28;20346;-58
2021/01/15 09:41:51;;;;;;;11.30;8.73;;;2.10;97.60;;;;;;5055651;28;20634;-57
2021/01/15 09:44:18;;;;;;;12.88;8.07;;;2.40;99.20;;;;;;5058947;28;20197;-60
2021/01/15 09:46:46;;;;;;;17.23;11.45;;;2.30;97.70;;;;;;5069259;28;20299;-57
2021/01/15 09:49:12;;;;;;;11.32;7.80;;;2.60;96.50;;;;;;5068321;28;20250;-57
2021/01/15 09:51:39;;;;;;;11.02;7.25;;;2.60;95.50;;;;;;5069224;28;20216;-58
2021/01/15 09:54:04;;;;;;;9.82;7.50;;;3.00;96.00;;;;;;5068988;28;20231;-58
2021/01/15 09:56:34;;;;;;;8.83;7.37;;;2.90;95.30;;;;;;5057696;28;20337;-58
2021/01/15 09:59:01;;;;;;;10.18;8.13;;;2.90;95.20;;;;;;5067602;28;20213;-58
2021/01/15 10:01:28;;;;;;;12.07;8.93;;;2.90;95.80;;;;;;5058360;28;20222;-57
2021/01/15 10:03:58;;;;;;;9.77;7.65;;;2.80;95.30;;;;;;5068509;28;20213;-59
2021/01/15 10:06:27;;;;;;;7.68;6.60;;;3.30;95.00;;;;;;5068551;28;20195;-59
2021/01/15 10:08:53;;;;;;;11.88;8.20;;;3.20;94.60;;;;;;5062667;28;20310;-58
2021/01/15 10:11:33;;;;;;;11.07;8.75;;;3.40;94.50;;;;;;5062249;28;20185;-58
2021/01/15 10:14:04;;;;;;;12.60;7.63;;;3.70;93.80;;;;;;5069051;28;20291;-58
2021/01/15 10:16:30;;;;;;;9.68;7.97;;;4.20;93.10;;;;;;5068809;28;20190;-57
2021/01/15 10:18:56;;;;;;;8.43;6.87;;;4.60;91.50;;;;;;5069417;28;20210;-59
2021/01/15 10:21:32;;;;;;;10.65;8.93;;;5.10;91.30;;;;;;5072786;28;20921;-58
2021/01/15 10:23:57;;;;;;;9.30;6.88;;;4.90;90.90;;;;;;5072414;28;20680;-58
2021/01/15 10:26:31;;;;;;;10.90;7.47;;;4.60;91.20;;;;;;5066585;28;20185;-58
2021/01/15 10:28:59;;;;;;;15.20;12.15;;;4.40;91.30;;;;;;5065302;28;20449;-58
2021/01/15 10:31:27;;;;;;;9.95;8.30;;;4.60;90.70;;;;;;5066778;28;20207;-58
2021/01/15 10:33:56;;;;;;;9.88;8.30;;;5.10;91.00;;;;;;5065958;28;20284;-58
2021/01/15 10:36:23;;;;;;;9.30;8.20;;;5.20;90.80;;;;;;5060218;28;20200;-57
2021/01/15 10:38:48;;;;;;;8.93;7.50;;;5.20;90.30;;;;;;5052916;28;20568;-60
2021/01/15 10:41:52;;;;;;;12.00;8.30;;;5.40;88.90;;;;;;5056592;28;20272;-60
2021/01/15 10:44:19;;;;;;;11.00;8.05;;;5.80;88.00;;;;;;5053676;28;20464;-58
2021/01/15 10:46:48;;;;;;;9.27;7.75;;;5.60;88.30;;;;;;5051730;28;20225;-58
2021/01/15 10:49:19;;;;;;;8.30;7.50;;;5.70;88.90;;;;;;5060716;28;20654;-58
2021/01/15 10:51:54;;;;;;;9.80;8.57;;;6.00;86.00;;;;;;5066382;28;20227;-59
2021/01/15 10:54:20;;;;;;;8.52;7.03;;;6.50;84.80;;;;;;5057767;28;20180;-58
2021/01/15 10:56:51;;;;;;;9.95;7.95;;;6.80;85.20;;;;;;5063599;28;20190;-59
2021/01/15 10:59:17;;;;;;;9.40;7.72;;;7.30;81.20;;;;;;5060694;28;20201;-59
2021/01/15 11:01:49;;;;;;;9.20;7.70;;;7.80;79.80;;;;;;5064262;28;20227;-58
2021/01/15 11:04:17;;;;;;;7.80;7.00;;;8.50;76.40;;;;;;5062057;28;20723;-59
2021/01/15 11:06:45;;;;;;;10.65;8.07;;;8.40;74.60;;;;;;5059521;28;20192;-58
2021/01/15 11:09:16;;;;;;;8.88;7.88;;;7.80;73.80;;;;;;5050738;28;20296;-59
2021/01/15 11:11:49;;;;;;;9.38;8.43;;;8.00;75.80;;;;;;5050858;28;20177;-59
2021/01/15 11:14:17;;;;;;;9.85;7.45;;;7.50;76.90;;;;;;5065757;28;20716;-60
2021/01/15 11:16:43;;;;;;;9.75;8.27;;;6.70;77.90;;;;;;5057327;28;20201;-59
2021/01/15 11:19:10;;;;;;;10.40;8.13;;;6.60;79.40;;;;;;5060402;28;20620;-58
2021/01/15 11:21:35;;;;;;;13.73;7.90;;;5.90;81.20;;;;;;5059344;28;20589;-59
2021/01/15 11:24:01;;;;;;;8.43;7.20;;;5.80;83.00;;;;;;5061099;28;20205;-59
2021/01/15 11:26:31;;;;;;;9.70;7.70;;;5.50;83.10;;;;;;5057436;28;20211;-62
2021/01/15 11:28:59;;;;;;;10.23;7.85;;;5.10;84.30;;;;;;5050259;28;20202;-59
2021/01/15 11:31:26;;;;;;;12.55;10.70;;;5.20;85.90;;;;;;5056383;28;20560;-59
2021/01/15 11:33:52;;;;;;;10.10;7.60;;;4.50;87.00;;;;;;5065467;28;20780;-59
2021/01/15 11:36:18;;;;;;;13.63;9.43;;;5.00;88.50;;;;;;5058436;28;20185;-59
2021/01/15 11:38:45;;;;;;;15.38;8.88;;;4.90;88.20;;;;;;5067385;28;20217;-59
2021/01/15 11:41:15;;;;;;;10.55;8.90;;;4.50;89.50;;;;;;5067432;28;20188;-59
2021/01/15 11:43:43;;;;;;;10.90;8.20;;;4.80;89.20;;;;;;5065337;28;20201;-59
2021/01/15 11:46:09;;;;;;;8.40;7.50;;;5.10;87.40;;;;;;5057338;28;20181;-59
2021/01/15 11:48:36;;;;;;;9.80;7.80;;;4.20;87.10;;;;;;5062874;28;20232;-58
2021/01/15 11:51:02;;;;;;;9.35;7.90;;;5.20;86.30;;;;;;5054200;28;20183;-57
2021/01/15 11:53:38;;;;;;;12.68;9.05;;;5.00;87.10;;;;;;5065280;28;20517;-57
2021/01/15 11:56:08;;;;;;;10.98;9.10;;;5.00;89.50;;;;;;5057886;28;20177;-58
2021/01/15 11:58:34;;;;;;;11.45;10.25;;;4.80;88.00;;;;;;5061633;28;20209;-60
2021/01/15 12:01:00;;;;;;;10.45;8.40;;;4.90;87.80;;;;;;5066506;28;20193;-58
2021/01/15 12:03:26;;;;;;;10.30;9.30;;;4.70;88.80;;;;;;5056513;28;20205;-58
2021/01/15 12:05:53;;;;;;;12.65;8.85;;;4.60;88.60;;;;;;5059745;28;20513;-58
2021/01/15 12:08:23;;;;;;;14.57;9.20;;;4.30;89.60;;;;;;5067164;28;20740;-59
2021/01/15 12:10:50;;;;;;;12.45;9.27;;;4.90;90.70;;;;;;5067579;28;20177;-58
2021/01/15 12:13:15;;;;;;;9.35;8.30;;;4.00;90.20;;;;;;5067390;28;20220;-56
2021/01/15 12:15:41;;;;;;;12.17;8.20;;;4.20;91.40;;;;;;5063747;28;20205;-56
2021/01/15 12:18:11;;;;;;;10.43;8.57;;;3.90;91.10;;;;;;5066370;28;20185;-58
2021/01/15 12:20:37;;;;;;;11.13;9.13;;;4.00;90.90;;;;;;5065184;28;20193;-59
2021/01/15 12:23:06;;;;;;;9.83;7.70;;;4.30;90.70;;;;;;5062867;28;20623;-57
2021/01/15 12:25:32;;;;;;;14.60;9.38;;;4.20;90.80;;;;;;5066646;28;20181;-58
2021/01/15 12:27:58;;;;;;;13.52;10.40;;;4.00;90.70;;;;;;5062790;28;20181;-57
2021/01/15 12:30:24;;;;;;;10.13;8.60;;;4.40;91.60;;;;;;5057766;28;20182;-58
2021/01/15 12:32:50;;;;;;;8.60;7.70;;;4.30;90.70;;;;;;5053208;28;20518;-57
2021/01/15 12:35:20;;;;;;;11.65;9.30;;;4.90;90.50;;;;;;5065128;28;20181;-59
2021/01/15 12:37:46;;;;;;;9.85;7.25;;;4.80;90.00;;;;;;5056770;28;20242;-58
2021/01/15 12:40:12;;;;;;;9.57;8.40;;;4.70;90.00;;;;;;5066359;28;20585;-57
2021/01/15 12:42:38;;;;;;;11.23;9.30;;;4.50;88.40;;;;;;5070744;28;20774;-59
2021/01/15 12:45:07;;;;;;;14.03;8.43;;;4.40;90.50;;;;;;5060596;28;20193;-57
2021/01/15 12:47:33;;;;;;;12.77;9.18;;;4.40;91.10;;;;;;5064735;28;20225;-62
2021/01/15 12:49:59;;;;;;;9.60;7.80;;;4.50;90.20;;;;;;5062199;28;20204;-59
2021/01/15 12:52:25;;;;;;;9.13;7.73;;;4.40;90.00;;;;;;5054543;28;20189;-57
2021/01/15 12:54:50;;;;;;;10.80;8.27;;;4.80;88.90;;;;;;5064756;28;20186;-58
2021/01/15 12:57:16;;;;;;;9.52;8.32;;;4.40;89.30;;;;;;5065712;28;20307;-56
2021/01/15 12:59:42;;;;;;;10.03;8.60;;;3.80;89.10;;;;;;5060820;28;20296;-58
2021/01/15 13:02:11;;;;;;;13.50;6.97;;;4.50;89.60;;;;;;5064965;28;20212;-60
2021/01/15 13:04:39;;;;;;;9.50;7.55;;;4.60;89.50;;;;;;5064380;28;20205;-58
2021/01/15 13:07:05;;;;;;;13.13;8.65;;;4.30;89.50;;;;;;5065089;28;20889;-57